Time;durP1;ratioP1;P1;durP2;ratioP2;P2;SDS_P1;SDS_P2;PMS_P1;PMS_P2;Temp;Humidity;BMP_temperature;BMP_pressure;BME280_temperature;BME280_humidity;BME280_pressure;Samples;Min_cycle;Max_cycle;Signal;HPM_P1;HPM_P2
2021/04/16 00:02:17;;;;;;;14.73;9.68;;;;;;;8.92;79.88;100141.27;1635659;85;21473;-77
2021/04/16 00:04:42;;;;;;;16.53;9.47;;;;;;;8.74;80.11;100139.05;1655223;85;21579;-76
2021/04/16 00:07:12;;;;;;;15.05;10.13;;;;;;;8.59;80.58;100135.58;1693780;84;21816;-77
2021/04/16 00:09:42;;;;;;;16.60;10.25;;;;;;;8.80;80.40;100130.58;1629803;85;21349;-76
2021/04/16 00:12:14;;;;;;;15.15;9.65;;;;;;;8.69;80.67;100133.41;1669706;84;21687;-78
2021/04/16 00:14:40;;;;;;;18.80;10.28;;;;;;;8.73;80.16;100137.39;1657846;84;22274;-77
2021/04/16 00:17:06;;;;;;;17.17;10.00;;;;;;;8.74;80.07;100141.69;1657704;85;21664;-79
2021/04/16 00:19:32;;;;;;;16.82;10.28;;;;;;;8.56;80.52;100140.28;1667298;85;21190;-80
2021/04/16 00:21:57;;;;;;;16.62;10.03;;;;;;;8.63;80.39;100134.80;1674364;84;27066;-78
2021/04/16 00:24:25;;;;;;;17.57;10.68;;;;;;;8.69;80.06;100141.30;1638494;85;25449;-76
2021/04/16 00:26:52;;;;;;;17.50;10.80;;;;;;;8.50;80.49;100133.80;1637216;85;21229;-75
2021/04/16 00:29:18;;;;;;;17.05;10.10;;;;;;;8.51;80.53;100132.81;1655571;85;21566;-76
2021/04/16 00:31:50;;;;;;;18.27;10.20;;;;;;;8.59;80.50;100131.63;1617098;85;22325;-79
2021/04/16 00:34:26;;;;;;;18.15;10.23;;;;;;;8.64;80.05;100131.20;1660708;85;21158;-75
2021/04/16 00:36:54;;;;;;;19.45;10.05;;;;;;;8.67;80.09;100127.43;1660624;85;21072;-77
2021/04/16 00:39:24;;;;;;;17.75;10.70;;;;;;;8.84;79.94;100124.06;1670712;85;21266;-76
2021/04/16 00:41:50;;;;;;;16.85;10.05;;;;;;;9.00;79.28;100126.55;1660255;85;21697;-79
2021/04/16 00:44:17;;;;;;;20.50;11.12;;;;;;;8.91;79.07;100127.75;1657422;84;21243;-74
2021/04/16 00:46:50;;;;;;;17.10;10.95;;;;;;;8.84;79.91;100124.06;1656593;85;21145;-76
2021/04/16 00:49:30;;;;;;;20.52;11.10;;;;;;;8.90;80.04;100120.84;1665059;85;21589;-76
2021/04/16 00:52:03;;;;;;;20.90;11.18;;;;;;;8.96;79.12;100118.94;1664785;84;21168;-76
2021/04/16 00:54:32;;;;;;;20.57;11.08;;;;;;;8.86;79.19;100122.09;1652349;84;21216;-76
2021/04/16 00:56:58;;;;;;;19.25;10.90;;;;;;;8.85;79.09;100114.34;1662079;85;22477;-77
2021/04/16 00:59:28;;;;;;;17.82;10.58;;;;;;;8.79;79.13;100118.37;1638987;85;27098;-75
2021/04/16 01:01:59;;;;;;;18.92;11.50;;;;;;;8.73;79.73;100118.49;1644581;85;21211;-76
2021/04/16 01:04:26;;;;;;;17.73;11.80;;;;;;;8.76;79.46;100110.30;1674038;85;21592;-77
2021/04/16 01:06:54;;;;;;;17.65;10.38;;;;;;;8.80;79.46;100114.78;1659660;85;21145;-76
2021/04/16 01:09:20;;;;;;;18.05;10.93;;;;;;;8.85;79.20;100112.53;1680746;84;22492;-76
2021/04/16 01:11:48;;;;;;;19.57;11.15;;;;;;;8.70;79.41;100104.77;1655204;85;21061;-76
2021/04/16 01:14:15;;;;;;;17.20;10.58;;;;;;;8.64;79.70;100099.61;1659476;84;21689;-76
2021/04/16 01:16:41;;;;;;;19.77;11.80;;;;;;;8.55;80.39;100096.03;1670484;85;21179;-75
2021/04/16 01:19:13;;;;;;;17.75;10.95;;;;;;;8.63;79.87;100095.31;1630002;85;26846;-74
2021/04/16 01:22:04;;;;;;;17.57;10.55;;;;;;;8.58;79.97;100098.37;1646500;85;21257;-77
2021/04/16 01:24:32;;;;;;;18.42;11.00;;;;;;;8.66;79.92;100102.10;1672752;84;21689;-75
2021/04/16 01:27:00;;;;;;;20.23;11.10;;;;;;;8.79;79.43;100096.00;1669881;84;21681;-75
2021/04/16 01:29:28;;;;;;;18.92;10.55;;;;;;;8.59;79.97;100089.52;1641242;85;21299;-75
2021/04/16 01:31:54;;;;;;;19.12;10.35;;;;;;;8.63;79.84;100090.87;1653304;86;21214;-76
2021/04/16 01:34:25;;;;;;;19.87;10.72;;;;;;;8.69;79.68;100097.36;1644500;85;21691;-78
2021/04/16 01:36:54;;;;;;;19.40;10.85;;;;;;;8.75;79.96;100086.75;1652751;86;21266;-76
2021/04/16 01:39:22;;;;;;;17.65;10.18;;;;;;;8.75;80.14;100084.12;1657313;86;21556;-76
2021/04/16 01:41:48;;;;;;;16.90;10.05;;;;;;;8.74;79.71;100089.85;1655863;86;21754;-79
2021/04/16 01:44:18;;;;;;;17.70;10.38;;;;;;;8.68;79.70;100085.66;1649978;84;27418;-76
2021/04/16 01:47:08;;;;;;;20.05;10.63;;;;;;;8.75;79.44;100084.12;1644816;84;21246;-77
2021/04/16 01:49:40;;;;;;;14.95;9.55;;;;;;;8.78;79.65;100081.20;1654062;86;21208;-78
2021/04/16 01:52:13;;;;;;;13.43;9.00;;;;;;;8.60;79.62;100080.63;1657837;85;21537;-78
2021/04/16 01:54:44;;;;;;;16.15;8.93;;;;;;;8.70;79.65;100081.07;1641218;86;21209;-75
2021/04/16 01:57:19;;;;;;;16.60;9.50;;;;;;;8.83;79.53;100082.89;1655700;86;21227;-76
2021/04/16 01:59:47;;;;;;;15.05;9.30;;;;;;;8.76;79.22;100083.12;1663223;85;22206;-75
2021/04/16 02:02:19;;;;;;;17.40;9.53;;;;;;;8.91;78.74;100082.98;1664811;83;21228;-80
2021/04/16 02:04:48;;;;;;;15.90;9.13;;;;;;;8.77;79.02;100078.20;1662121;85;21531;-76
2021/04/16 02:07:16;;;;;;;16.50;9.83;;;;;;;8.75;79.39;100074.91;1665570;86;21335;-76
2021/04/16 02:09:45;;;;;;;;;;;;;;;8.78;79.30;100073.30;1676229;85;21176;-76
2021/04/16 02:12:13;;;;;;;13.48;8.58;;;;;;;8.69;79.43;100067.59;1648120;86;20273;-75
2021/04/16 02:14:39;;;;;;;13.60;9.05;;;;;;;8.63;79.85;100067.17;1662475;85;21220;-76
2021/04/16 02:17:15;;;;;;;14.13;8.75;;;;;;;8.67;80.03;100066.88;1620390;86;25455;-76
2021/04/16 02:19:41;;;;;;;16.40;8.95;;;;;;;8.72;79.60;100062.03;1663782;85;21214;-75
2021/04/16 02:22:15;;;;;;;17.25;9.45;;;;;;;8.55;80.11;100055.73;1661052;85;21252;-79
2021/04/16 02:24:42;;;;;;;16.15;9.70;;;;;;;8.50;80.31;100053.54;1655647;86;21750;-76
2021/04/16 02:27:09;;;;;;;;;;;;;;;8.67;79.94;100065.10;1677450;85;21248;-76
2021/04/16 02:29:39;;;;;;;14.03;8.75;;;;;;;8.75;79.82;100061.73;1654192;86;20203;-75
2021/04/16 02:32:08;;;;;;;15.05;9.15;;;;;;;8.68;79.93;100073.81;1656981;85;21651;-77
2021/04/16 02:34:34;;;;;;;16.70;9.55;;;;;;;8.73;79.94;100064.98;1622173;85;21236;-75
2021/04/16 02:37:06;;;;;;;14.30;8.90;;;;;;;8.69;79.81;100065.77;1668284;85;22108;-76
2021/04/16 02:39:32;;;;;;;14.45;9.08;;;;;;;8.81;79.73;100069.05;1665705;84;21219;-77
2021/04/16 02:41:58;;;;;;;15.45;9.10;;;;;;;8.49;80.05;100068.16;1659274;84;25344;-75
2021/04/16 02:44:29;;;;;;;15.70;9.03;;;;;;;8.40;80.37;100059.28;1682220;83;29002;-78
2021/04/16 02:46:57;;;;;;;13.75;9.08;;;;;;;8.54;80.20;100056.70;1672854;85;21627;-75
2021/04/16 02:49:23;;;;;;;17.00;10.65;;;;;;;8.37;80.71;100061.70;1678434;84;22290;-76
2021/04/16 02:51:50;;;;;;;18.60;11.38;;;;;;;8.43;80.44;100065.58;1642966;86;21234;-75
2021/04/16 02:54:18;;;;;;;19.30;11.93;;;;;;;8.30;80.89;100065.05;1670852;85;21231;-77
2021/04/16 02:56:47;;;;;;;17.82;11.33;;;;;;;8.37;80.90;100074.05;1664122;85;21163;-75
2021/04/16 02:59:21;;;;;;;19.27;11.55;;;;;;;8.31;81.26;100050.94;1653123;85;21203;-75
2021/04/16 03:01:49;;;;;;;16.35;10.10;;;;;;;8.27;80.84;100065.69;1665170;85;21653;-75
2021/04/16 03:04:18;;;;;;;17.05;10.25;;;;;;;8.21;81.09;100060.19;1664765;84;21196;-75
2021/04/16 03:06:44;;;;;;;18.35;10.10;;;;;;;8.26;80.78;100066.69;1661991;84;21206;-78
2021/04/16 03:09:10;;;;;;;15.38;9.20;;;;;;;8.27;81.17;100063.06;1661087;84;22191;-76
2021/04/16 03:11:39;;;;;;;15.90;9.75;;;;;;;8.35;81.13;100060.21;1674198;84;26784;-76
2021/04/16 03:14:05;;;;;;;11.73;7.75;;;;;;;8.52;80.38;100056.84;1658268;84;21212;-75
2021/04/16 03:16:31;;;;;;;18.57;8.93;;;;;;;8.50;80.36;100061.44;1654408;84;27031;-76
2021/04/16 03:19:00;;;;;;;15.50;8.70;;;;;;;8.40;80.10;100057.97;1649409;85;21230;-76
2021/04/16 03:21:26;;;;;;;11.75;7.62;;;;;;;8.42;80.29;100060.81;1679891;84;21259;-75
2021/04/16 03:23:51;;;;;;;12.10;7.37;;;;;;;8.43;80.36;100058.99;1665520;85;27367;-75
2021/04/16 03:26:21;;;;;;;11.80;7.42;;;;;;;8.46;79.83;100062.69;1687558;84;22452;-78
2021/04/16 03:28:54;;;;;;;10.88;7.28;;;;;;;8.43;80.02;100064.26;1658773;84;21586;-77
2021/04/16 03:31:20;;;;;;;12.37;7.15;;;;;;;8.30;80.23;100058.48;1653050;84;21173;-76
2021/04/16 03:33:47;;;;;;;11.65;6.67;;;;;;;8.25;80.54;100067.65;1662988;85;28389;-75
2021/04/16 03:36:15;;;;;;;13.35;7.70;;;;;;;8.39;80.06;100057.61;1656312;85;24562;-76
2021/04/16 03:38:41;;;;;;;15.10;7.55;;;;;;;8.39;80.26;100054.52;1649489;85;22066;-76
2021/04/16 03:41:10;;;;;;;11.08;6.80;;;;;;;8.31;80.86;100050.94;1672396;84;27544;-75
2021/04/16 03:43:35;;;;;;;16.07;7.53;;;;;;;8.27;80.45;100056.98;1660844;85;21236;-77
2021/04/16 03:46:03;;;;;;;12.45;6.97;;;;;;;8.30;80.22;100057.16;1672283;83;28348;-75
2021/04/16 03:48:29;;;;;;;;;;;;;;;8.30;80.48;100053.22;1655448;85;21316;-75
2021/04/16 03:50:56;;;;;;;10.78;6.53;;;;;;;8.36;80.52;100054.80;1660943;85;21308;-79
2021/04/16 03:53:22;;;;;;;12.20;6.95;;;;;;;8.32;80.14;100060.50;1674731;85;21543;-75
2021/04/16 03:55:48;;;;;;;14.33;7.65;;;;;;;8.20;80.48;100059.36;1661055;85;25449;-78
2021/04/16 03:58:15;;;;;;;15.55;7.17;;;;;;;8.39;80.09;100057.61;1669148;85;28441;-75
2021/04/16 04:00:41;;;;;;;13.62;7.17;;;;;;;8.42;80.16;100058.17;1663917;85;24194;-75
2021/04/16 04:03:11;;;;;;;11.33;6.67;;;;;;;8.50;80.48;100054.00;1659522;85;22524;-76
2021/04/16 04:05:41;;;;;;;13.62;7.10;;;;;;;8.48;79.93;100067.30;1656506;85;21177;-75
2021/04/16 04:08:09;;;;;;;12.65;6.97;;;;;;;8.47;80.01;100056.45;1671084;83;21417;-77
2021/04/16 04:10:38;;;;;;;10.93;6.80;;;;;;;8.40;80.22;100060.59;1653712;84;21203;-76
2021/04/16 04:13:07;;;;;;;9.48;6.15;;;;;;;8.44;80.21;100062.01;1659249;85;21157;-79
2021/04/16 04:15:35;;;;;;;10.90;6.65;;;;;;;8.36;80.16;100064.48;1669342;83;21840;-81
2021/04/16 04:18:04;;;;;;;12.13;6.72;;;;;;;8.42;79.98;100066.53;1652888;84;21178;-76
2021/04/16 04:20:34;;;;;;;11.85;6.92;;;;;;;8.31;80.44;100058.83;1629516;85;21208;-78
2021/04/16 04:23:00;;;;;;;10.72;6.58;;;;;;;8.42;80.21;100062.12;1656733;85;21048;-78
2021/04/16 04:25:27;;;;;;;11.78;6.72;;;;;;;8.35;80.94;100065.47;1678496;85;21220;-76
2021/04/16 04:27:55;;;;;;;10.78;6.75;;;;;;;8.46;80.72;100067.13;1638025;85;21199;-76
2021/04/16 04:30:26;;;;;;;11.68;6.87;;;;;;;8.43;80.83;100065.58;1657403;85;21196;-78
2021/04/16 04:32:54;;;;;;;11.45;6.80;;;;;;;8.58;80.81;100064.16;1681355;84;21242;-77
2021/04/16 04:35:22;;;;;;;9.25;6.10;;;;;;;8.68;80.60;100073.81;1650945;85;21219;-75
2021/04/16 04:37:48;;;;;;;9.98;6.35;;;;;;;8.63;80.28;100062.41;1690509;84;21248;-75
2021/04/16 04:40:17;;;;;;;12.03;6.90;;;;;;;8.32;80.90;100068.39;1659741;85;21979;-78
2021/04/16 04:42:43;;;;;;;12.70;6.45;;;;;;;8.57;80.39;100062.49;1666572;84;21105;-78
2021/04/16 04:45:11;;;;;;;12.15;6.78;;;;;;;8.56;80.93;100060.86;1662639;85;21233;-77
2021/04/16 04:47:38;;;;;;;12.85;6.72;;;;;;;8.50;80.77;100058.80;1667618;84;21215;-76
2021/04/16 04:50:09;;;;;;;12.35;6.28;;;;;;;8.52;80.82;100059.48;1660995;85;21192;-76
2021/04/16 04:52:41;;;;;;;9.90;6.12;;;;;;;8.53;80.52;100062.46;1688055;84;21124;-77
2021/04/16 04:55:13;;;;;;;11.35;6.55;;;;;;;8.44;80.82;100052.80;1643410;85;21263;-76
2021/04/16 04:57:41;;;;;;;9.55;6.58;;;;;;;8.22;81.61;100056.09;1669848;84;21239;-79
2021/04/16 05:00:09;;;;;;;11.57;6.75;;;;;;;8.32;81.46;100061.31;1650521;85;21710;-79
2021/04/16 05:02:39;;;;;;;12.23;6.55;;;;;;;8.30;81.92;100054.53;1685958;84;21228;-76
2021/04/16 05:05:07;;;;;;;10.88;6.37;;;;;;;8.16;82.23;100054.03;1657643;85;21250;-76
2021/04/16 05:07:33;;;;;;;11.25;6.33;;;;;;;8.15;82.15;100055.00;1667819;84;23327;-76
2021/04/16 05:10:00;;;;;;;13.55;6.92;;;;;;;8.15;82.39;100052.37;1662917;84;25282;-79
2021/04/16 05:12:27;;;;;;;;;;;;;;;8.05;82.81;100051.58;1688457;84;21236;-76
2021/04/16 05:14:54;;;;;;;10.23;6.00;;;;;;;8.07;83.06;100057.52;1632058;85;20294;-77
2021/04/16 05:17:20;;;;;;;10.30;6.00;;;;;;;8.10;82.89;100049.34;1658373;85;21212;-75
2021/04/16 05:19:46;;;;;;;12.05;6.40;;;;;;;8.16;82.85;100054.03;1655587;85;26970;-76
2021/04/16 05:22:13;;;;;;;9.98;5.70;;;;;;;8.09;83.14;100047.67;1634181;85;25432;-77
2021/04/16 05:24:40;;;;;;;;;;;;;;;8.03;83.15;100050.87;1658626;85;21714;-77
2021/04/16 05:27:09;;;;;;;9.45;5.55;;;;;;;7.84;83.89;100053.88;1660329;84;20237;-78
2021/04/16 05:29:35;;;;;;;10.40;5.90;;;;;;;8.03;83.33;100045.62;1654469;84;21353;-76
2021/04/16 05:32:03;;;;;;;13.03;6.55;;;;;;;8.07;83.76;100053.08;1665699;83;27045;-76
2021/04/16 05:34:30;;;;;;;10.95;6.28;;;;;;;8.14;83.25;100059.09;1662163;84;21231;-79
2021/04/16 05:36:56;;;;;;;11.80;6.45;;;;;;;8.20;83.27;100056.73;1668828;85;21294;-78
2021/04/16 05:39:22;;;;;;;11.35;6.33;;;;;;;8.25;82.87;100057.13;1664585;86;27064;-78
2021/04/16 05:41:48;;;;;;;12.13;6.53;;;;;;;8.09;83.23;100055.56;1656133;83;21821;-79
2021/04/16 05:44:16;;;;;;;13.68;6.42;;;;;;;8.07;83.44;100054.89;1656722;84;27101;-78
2021/04/16 05:46:43;;;;;;;11.63;7.03;;;;;;;8.16;83.33;100051.41;1660655;85;21232;-78
2021/04/16 05:49:11;;;;;;;10.82;6.37;;;;;;;8.09;83.36;100056.42;1646101;84;21253;-80
2021/04/16 05:51:38;;;;;;;;;;;;;;;8.25;83.33;100045.28;1671634;85;21693;-78
2021/04/16 05:54:08;;;;;;;;;;;;;;;8.24;83.04;100058.09;1653347;86;21056;-79
2021/04/16 05:56:37;;;;;;;11.60;6.85;;;;;;;8.22;83.20;100050.83;1652593;84;20336;-78
2021/04/16 05:59:07;;;;;;;15.18;6.78;;;;;;;8.17;83.29;100051.77;1651157;86;21285;-82
2021/04/16 06:01:34;;;;;;;11.05;6.83;;;;;;;8.35;83.06;100047.88;1668236;84;21212;-76
2021/04/16 06:04:05;;;;;;;;;;;;;;;8.27;82.78;100057.80;1662763;86;21224;-78
2021/04/16 06:06:35;;;;;;;12.15;6.42;;;;;;;8.29;83.08;100039.24;1646890;86;20272;-76
2021/04/16 06:09:01;;;;;;;12.30;6.37;;;;;;;8.37;82.76;100049.05;1669410;84;21137;-76
2021/04/16 06:11:26;;;;;;;11.53;6.40;;;;;;;8.03;82.98;100049.09;1647545;86;21231;-77
2021/04/16 06:13:52;;;;;;;10.35;6.15;;;;;;;8.07;83.50;100048.31;1647956;86;28375;-77
2021/04/16 06:16:18;;;;;;;13.28;6.85;;;;;;;8.21;82.89;100050.48;1659506;84;26829;-77
2021/04/16 06:18:47;;;;;;;13.65;6.92;;;;;;;8.12;83.10;100036.87;1652256;86;21883;-77
2021/04/16 06:21:13;;;;;;;11.73;6.40;;;;;;;8.05;83.41;100039.75;1678242;84;21229;-76
2021/04/16 06:23:40;;;;;;;12.28;6.70;;;;;;;8.12;83.02;100044.77;1658606;86;25803;-77
2021/04/16 06:26:06;;;;;;;13.75;6.55;;;;;;;7.89;83.42;100049.52;1660733;83;21264;-77
2021/04/16 06:28:33;;;;;;;13.38;6.35;;;;;;;8.09;83.30;100060.83;1646858;86;26795;-77
2021/04/16 06:31:00;;;;;;;12.78;7.20;;;;;;;8.12;83.30;100057.09;1651555;85;21290;-77
2021/04/16 06:33:29;;;;;;;11.73;6.22;;;;;;;8.03;83.28;100049.09;1671403;85;21293;-78
2021/04/16 06:36:06;;;;;;;13.25;7.92;;;;;;;7.90;83.55;100053.32;1668365;84;21272;-78
2021/04/16 06:38:35;;;;;;;13.78;7.40;;;;;;;8.07;83.33;100048.31;1647592;85;21252;-78
2021/04/16 06:41:01;;;;;;;12.47;6.90;;;;;;;8.07;83.37;100043.05;1655200;85;21220;-77
2021/04/16 06:43:51;;;;;;;12.70;8.08;;;;;;;8.12;84.10;100044.77;1648762;85;21937;-78
2021/04/16 06:46:37;;;;;;;17.55;8.95;;;;;;;8.21;83.20;100056.23;1668377;85;21203;-78
2021/04/16 06:49:15;;;;;;;17.05;10.00;;;;;;;8.12;83.15;100048.70;1672044;84;21179;-76
2021/04/16 06:51:43;;;;;;;;;;;;;;;8.06;83.38;100052.76;1673614;85;21211;-77
2021/04/16 06:54:14;;;;;;;17.07;10.15;;;;;;;8.16;83.18;100050.09;1650083;85;20691;-76
2021/04/16 06:56:47;;;;;;;17.07;9.90;;;;;;;8.23;83.06;100053.82;1637285;85;22104;-78
2021/04/16 06:59:24;;;;;;;15.98;9.88;;;;;;;8.32;82.81;100049.97;1680110;84;21232;-79
2021/04/16 07:02:04;;;;;;;15.10;9.78;;;;;;;8.21;82.74;100054.92;1647686;85;21282;-78
2021/04/16 07:04:53;;;;;;;13.78;9.18;;;;;;;8.21;82.87;100055.74;1687208;84;21183;-77
2021/04/16 07:07:34;;;;;;;17.57;9.93;;;;;;;8.29;82.86;100053.71;1668217;84;22622;-75
2021/04/16 07:10:16;;;;;;;14.73;9.23;;;;;;;8.33;81.88;100071.34;1652747;85;21232;-77
2021/04/16 07:12:43;;;;;;;16.52;8.45;;;;;;;8.32;81.85;100055.23;1691968;83;21200;-76
2021/04/16 07:15:13;;;;;;;16.93;8.80;;;;;;;8.24;82.33;100051.52;1654920;84;21238;-76
2021/04/16 07:17:42;;;;;;;12.75;8.18;;;;;;;8.35;81.99;100051.82;1675246;84;21297;-75
2021/04/16 07:20:10;;;;;;;14.63;8.83;;;;;;;8.19;82.45;100049.80;1661525;85;21651;-76
2021/04/16 07:22:43;;;;;;;15.58;7.67;;;;;;;8.26;82.27;100054.84;1676077;84;21215;-82
2021/04/16 07:25:34;;;;;;;11.48;7.97;;;;;;;8.11;82.34;100047.07;1659499;85;21667;-86
2021/04/16 07:28:29;;;;;;;14.30;7.50;;;;;;;8.09;82.52;100051.16;1657488;84;21240;-86
2021/04/16 07:30:57;;;;;;;13.48;7.80;;;;;;;8.22;82.17;100049.52;1665612;84;21200;-86
2021/04/16 07:33:42;;;;;;;12.68;7.50;;;;;;;8.05;82.58;100041.06;1658325;84;22086;-85
2021/04/16 07:36:40;;;;;;;16.30;7.42;;;;;;;8.07;82.54;100036.48;1639465;86;21211;-86
2021/04/16 07:39:19;;;;;;;13.15;7.85;;;;;;;8.12;82.46;100039.50;1672222;83;21208;-86
2021/04/16 07:41:54;;;;;;;13.70;8.38;;;;;;;8.24;82.68;100038.36;1643632;85;21203;-87
2021/04/16 07:44:38;;;;;;;16.82;9.58;;;;;;;8.04;83.07;100049.91;1656782;85;21041;-85
2021/04/16 07:47:21;;;;;;;21.93;9.70;;;;;;;8.14;82.90;100053.36;1654483;84;21237;-86
2021/04/16 07:50:07;;;;;;;17.60;10.00;;;;;;;8.33;82.55;100060.82;1645837;84;22229;-87
2021/04/16 07:52:42;;;;;;;20.10;10.48;;;;;;;8.36;82.48;100055.27;1655306;84;21167;-87
2021/04/16 07:55:30;;;;;;;19.07;10.78;;;;;;;8.22;82.80;100059.22;1657784;86;21201;-86
2021/04/16 07:58:10;;;;;;;24.35;12.18;;;;;;;8.32;82.70;100060.50;1656733;84;21223;-85
2021/04/16 08:00:40;;;;;;;20.12;11.65;;;;;;;8.30;82.89;100071.16;1658961;85;21246;-86
2021/04/16 08:03:25;;;;;;;25.43;13.75;;;;;;;8.27;83.32;100067.01;1625399;86;21407;-86
2021/04/16 08:05:58;;;;;;;27.40;14.40;;;;;;;8.30;83.11;100059.80;1639819;86;21183;-87
2021/04/16 08:08:30;;;;;;;25.23;14.10;;;;;;;8.21;83.56;100064.95;1653298;86;21204;-87
2021/04/16 08:11:13;;;;;;;24.77;12.70;;;;;;;8.10;83.70;100069.07;1646143;86;21212;-84
2021/04/16 08:13:48;;;;;;;23.07;12.73;;;;;;;8.07;83.53;100070.17;1623155;86;47698;-86
2021/04/16 08:16:40;;;;;;;22.32;12.63;;;;;;;8.18;83.63;100070.50;1642905;86;22319;-85
2021/04/16 08:19:25;;;;;;;25.20;12.50;;;;;;;8.13;83.56;100066.16;1635937;84;21259;-86
2021/04/16 08:22:12;;;;;;;21.68;11.65;;;;;;;7.93;84.20;100059.29;1648998;86;21570;-86
2021/04/16 08:24:54;;;;;;;25.33;11.77;;;;;;;7.85;84.23;100063.44;1661965;84;21241;-86
2021/04/16 08:27:49;;;;;;;19.67;9.63;;;;;;;8.11;84.17;100065.94;1650947;85;21558;-81
2021/04/16 08:30:49;;;;;;;22.35;10.35;;;;;;;8.24;83.89;100064.66;1669450;83;21212;-87
2021/04/16 08:33:37;;;;;;;22.17;10.43;;;;;;;8.46;82.90;100061.87;1717985;82;21626;-79
2021/04/16 08:36:28;;;;;;;19.87;10.00;;;;;;;8.38;82.87;100068.64;1713983;81;21207;-78
2021/04/16 08:39:06;;;;;;;28.57;12.45;;;;;;;8.55;82.44;100064.45;1712021;81;21251;-78
2021/04/16 08:41:37;;;;;;;25.57;12.45;;;;;;;8.33;81.92;100055.56;1710105;83;21681;-81
2021/04/16 08:44:08;;;;;;;23.07;11.35;;;;;;;8.52;81.89;100056.84;1708110;83;21238;-83
2021/04/16 08:46:41;;;;;;;21.30;11.50;;;;;;;8.46;81.27;100059.23;1687044;83;21208;-80
2021/04/16 08:49:11;;;;;;;23.00;11.38;;;;;;;8.56;81.62;100063.48;1716657;81;21073;-82
2021/04/16 08:51:43;;;;;;;21.57;11.03;;;;;;;8.59;81.04;100065.83;1717823;81;21180;-82
2021/04/16 08:54:24;;;;;;;19.05;10.08;;;;;;;8.51;81.34;100064.39;1715255;81;21163;-79
2021/04/16 08:56:59;;;;;;;25.85;11.97;;;;;;;8.39;81.11;100065.51;1711231;83;21348;-82
2021/04/16 08:59:30;;;;;;;24.90;11.85;;;;;;;8.53;81.46;100055.03;1719627;82;21413;-85
2021/04/16 09:02:11;;;;;;;24.82;12.80;;;;;;;8.49;81.08;100065.03;1716138;82;21227;-82
2021/04/16 09:04:47;;;;;;;23.60;12.53;;;;;;;8.56;81.35;100066.12;1703897;83;21132;-84
2021/04/16 09:07:45;;;;;;;24.47;12.78;;;;;;;8.54;80.14;100064.09;1721048;83;21220;-81
2021/04/16 09:10:20;;;;;;;24.50;12.55;;;;;;;8.58;80.36;100059.39;1692736;83;21337;-80
2021/04/16 09:12:55;;;;;;;20.62;12.23;;;;;;;8.62;79.82;100073.44;1692692;82;21748;-82
2021/04/16 09:15:38;;;;;;;25.95;12.40;;;;;;;8.17;80.67;100062.28;1671667;82;21653;-85
2021/04/16 09:18:24;;;;;;;17.57;10.28;;;;;;;8.51;80.49;100064.39;1703701;81;21171;-79
2021/04/16 09:21:01;;;;;;;16.07;9.95;;;;;;;8.25;80.25;100072.09;1721604;81;21255;-83
2021/04/16 09:23:41;;;;;;;17.17;10.13;;;;;;;8.34;80.48;100064.63;1720191;81;21307;-82
2021/04/16 09:26:08;;;;;;;21.95;10.10;;;;;;;8.53;80.57;100069.50;1715083;81;21112;-83
2021/04/16 09:28:54;;;;;;;16.50;9.53;;;;;;;8.14;80.61;100058.63;1714292;81;28573;-84
2021/04/16 09:31:47;;;;;;;15.88;8.83;;;;;;;8.48;80.25;100062.54;1723701;81;21744;-84
2021/04/16 09:34:28;;;;;;;16.40;9.35;;;;;;;8.44;80.24;100068.59;1705025;81;21666;-80
2021/04/16 09:37:21;;;;;;;15.25;9.15;;;;;;;8.33;80.50;100059.50;1670897;85;21296;-77
2021/04/16 09:40:04;;;;;;;18.95;10.23;;;;;;;8.47;80.37;100059.56;1667137;85;21244;-86
2021/04/16 09:42:46;;;;;;;16.80;9.08;;;;;;;8.68;80.01;100056.70;1664396;85;21244;-84
2021/04/16 09:45:38;;;;;;;14.70;8.58;;;;;;;8.48;79.45;100059.41;1667188;85;21234;-80
2021/04/16 09:48:11;;;;;;;15.85;9.23;;;;;;;8.57;79.97;100059.05;1665465;85;21172;-85
2021/04/16 09:51:01;;;;;;;17.45;10.35;;;;;;;8.63;79.87;100055.83;1653216;86;21220;-84
2021/04/16 09:53:34;;;;;;;18.77;9.85;;;;;;;8.76;79.28;100058.11;1669683;85;21124;-79
2021/04/16 09:56:19;;;;;;;17.87;10.53;;;;;;;8.51;79.41;100053.86;1659044;85;21262;-81
2021/04/16 09:58:59;;;;;;;18.42;10.13;;;;;;;8.68;79.17;100055.39;1667092;85;21262;-82
2021/04/16 10:01:27;;;;;;;15.93;9.43;;;;;;;8.54;79.59;100065.41;1665191;85;21201;-82
2021/04/16 10:04:07;;;;;;;17.90;9.65;;;;;;;8.46;80.09;100054.79;1674672;84;21199;-84
2021/04/16 10:06:46;;;;;;;25.68;11.53;;;;;;;8.56;79.70;100063.48;1676232;84;21205;-90
2021/04/16 10:09:26;;;;;;;19.37;11.22;;;;;;;8.79;79.20;100061.77;1662539;85;21174;-83
2021/04/16 10:12:03;;;;;;;22.32;11.65;;;;;;;8.96;79.18;100057.05;1665878;85;21235;-78
2021/04/16 10:14:38;;;;;;;17.95;8.95;;;;;;;9.06;78.93;100056.12;1674088;84;21737;-84
2021/04/16 10:17:18;;;;;;;16.45;8.63;;;;;;;8.91;78.30;100061.09;1669053;84;22234;-85
2021/04/16 10:19:47;;;;;;;18.10;8.35;;;;;;;8.90;78.56;100052.38;1652942;86;21191;-82
2021/04/16 10:22:35;;;;;;;16.52;8.23;;;;;;;8.79;78.91;100045.97;1673486;85;21221;-82
2021/04/16 11:24:26;;;;;;;12.10;4.72;;;;;;;9.28;75.48;100060.16;1660923;84;21172;-80
2021/04/16 12:38:32;;;;;;;14.05;6.58;;;;;;;9.02;83.24;100082.45;1669529;85;21678;-79
2021/04/16 12:40:53;;;;;;;9.95;6.58;;;;;;;8.93;83.12;100081.52;1674299;84;21109;-79
2021/04/16 12:43:21;;;;;;;12.73;6.67;;;;;;;8.84;82.64;100083.24;1663972;85;21250;-80
2021/04/16 12:45:47;;;;;;;;;;;;;;;8.97;82.54;100082.89;1680622;85;21207;-78
2021/04/16 12:48:12;;;;;;;10.93;6.17;;;;;;;8.84;82.87;100085.88;1668917;85;20249;-82
2021/04/16 12:50:40;;;;;;;12.45;6.45;;;;;;;8.77;82.81;100088.24;1671156;85;22482;-81
2021/04/16 12:53:12;;;;;;;;;;;;;;;8.76;82.97;100087.08;1670717;85;21726;-82
2021/04/16 12:55:40;;;;;;;13.38;8.03;;;;;;;8.84;83.20;100085.88;1677620;84;20577;-80
2021/04/16 12:58:07;;;;;;;13.62;7.53;;;;;;;8.88;83.40;100085.91;1658794;85;21273;-82
2021/04/16 13:00:41;;;;;;;11.78;7.55;;;;;;;8.78;84.19;100075.43;1676100;85;21814;-78
2021/04/16 13:03:15;;;;;;;11.93;6.90;;;;;;;8.95;84.15;100083.03;1668411;84;21442;-80
2021/04/16 13:05:41;;;;;;;11.43;6.87;;;;;;;8.97;83.59;100079.75;1670769;85;21207;-81
2021/04/16 13:08:10;;;;;;;14.25;7.40;;;;;;;8.91;84.21;100084.79;1673616;85;25322;-81
2021/04/16 13:10:37;;;;;;;12.23;7.17;;;;;;;8.91;84.09;100085.61;1668314;85;21506;-83
2021/04/16 13:13:03;;;;;;;11.38;7.20;;;;;;;9.07;83.85;100083.64;1664294;85;21252;-86
2021/04/16 13:15:28;;;;;;;14.60;7.47;;;;;;;9.14;83.66;100083.40;1666778;85;22072;-79
2021/04/16 13:17:59;;;;;;;13.03;8.20;;;;;;;9.03;83.58;100082.80;1665244;84;27094;-84
2021/04/16 13:20:27;;;;;;;14.33;7.92;;;;;;;9.04;83.84;100083.12;1662716;85;22304;-80
2021/04/16 13:22:55;;;;;;;14.90;8.60;;;;;;;9.03;83.87;100080.16;1664275;85;22364;-78
2021/04/16 13:25:24;;;;;;;16.02;9.03;;;;;;;9.02;83.90;100073.23;1666712;84;21231;-78
2021/04/16 13:27:51;;;;;;;14.30;9.28;;;;;;;9.20;83.54;100083.30;1667745;84;21258;-77
2021/04/16 13:30:23;;;;;;;13.60;7.92;;;;;;;9.16;83.55;100081.94;1667374;85;21557;-82
2021/04/16 13:32:51;;;;;;;12.75;8.68;;;;;;;9.29;82.90;100082.41;1667091;85;22509;-82
2021/04/16 13:35:24;;;;;;;16.05;8.98;;;;;;;9.31;82.70;100078.31;1665689;84;21269;-77
2021/04/16 13:37:51;;;;;;;13.53;8.33;;;;;;;9.47;82.59;100078.95;1676018;84;21244;-78
2021/04/16 13:40:19;;;;;;;14.23;9.05;;;;;;;9.42;82.89;100075.94;1677885;84;22569;-79
2021/04/16 13:42:47;;;;;;;11.90;8.50;;;;;;;9.51;82.28;100078.99;1662845;85;21672;-82
2021/04/16 13:45:17;;;;;;;12.43;9.18;;;;;;;9.45;82.93;100077.78;1667149;85;21235;-80
2021/04/16 13:47:44;;;;;;;18.00;9.23;;;;;;;9.49;82.50;100080.93;1679881;83;21212;-83
2021/04/16 13:50:14;;;;;;;14.10;8.73;;;;;;;9.44;83.04;100080.56;1641194;85;21270;-85
2021/04/16 13:52:40;;;;;;;14.20;8.73;;;;;;;9.61;82.96;100080.22;1683210;83;22361;-76
2021/04/16 13:55:08;;;;;;;12.47;8.23;;;;;;;9.79;82.06;100080.19;1656163;84;28091;-78
2021/04/16 13:57:34;;;;;;;14.60;7.97;;;;;;;9.74;81.98;100083.78;1667144;85;21217;-77
2021/04/16 14:00:02;;;;;;;13.35;7.87;;;;;;;9.75;81.27;100080.17;1679496;84;28281;-78